Time;durP1;ratioP1;P1;durP2;ratioP2;P2;SDS_P1;SDS_P2;PMS_P1;PMS_P2;Temp;Humidity;BMP_temperature;BMP_pressure;BME280_temperature;BME280_humidity;BME280_pressure;Samples;Min_cycle;Max_cycle;Signal;HPM_P1;HPM_P2
2021/12/30 00:02:29;;;;;;;10.77;4.68;;;9.60;99.90;;;;;;5031473;28;20046;-76
2021/12/30 00:05:34;;;;;;;11.90;5.38;;;9.50;99.90;;;;;;5031420;28;20040;-75
2021/12/30 00:08:39;;;;;;;11.48;5.32;;;9.50;99.90;;;;;;5030850;28;20053;-75
2021/12/30 00:11:45;;;;;;;15.20;4.40;;;9.50;99.90;;;;;;5031436;28;20075;-75
2021/12/30 00:14:49;;;;;;;11.25;4.40;;;9.40;99.90;;;;;;5031604;28;20467;-75
2021/12/30 00:17:53;;;;;;;13.07;5.32;;;9.40;99.90;;;;;;5042038;28;20459;-75
2021/12/30 00:20:57;;;;;;;14.90;4.47;;;9.30;99.90;;;;;;5031504;28;20070;-75
2021/12/30 00:24:01;;;;;;;17.20;4.78;;;9.30;99.90;;;;;;5031101;28;20057;-75
2021/12/30 00:27:05;;;;;;;11.05;4.63;;;9.20;99.90;;;;;;5031051;28;20052;-75
2021/12/30 00:30:11;;;;;;;14.35;4.70;;;9.20;99.90;;;;;;5029748;28;20396;-75
2021/12/30 00:33:15;;;;;;;11.82;5.63;;;9.20;99.90;;;;;;5031174;28;20048;-75
2021/12/30 00:36:19;;;;;;;13.00;5.43;;;9.10;99.90;;;;;;5030617;28;20052;-75
2021/12/30 00:39:23;;;;;;;11.60;4.63;;;9.10;99.90;;;;;;5030626;28;20060;-75
2021/12/30 00:42:28;;;;;;;10.07;3.88;;;9.10;99.90;;;;;;5030738;28;20049;-75
2021/12/30 00:45:34;;;;;;;12.13;3.88;;;9.20;99.90;;;;;;5030797;28;20045;-75
2021/12/30 00:48:40;;;;;;;10.68;3.63;;;9.20;99.90;;;;;;5030367;28;20056;-75
2021/12/30 00:51:44;;;;;;;19.58;4.65;;;9.20;99.90;;;;;;5030231;28;20044;-75
2021/12/30 00:54:48;;;;;;;13.70;6.90;;;9.20;99.90;;;;;;5030652;28;20044;-75
2021/12/30 00:57:52;;;;;;;14.10;6.15;;;9.20;99.90;;;;;;5030613;28;20389;-75
2021/12/30 01:00:59;;;;;;;12.57;6.57;;;9.20;99.90;;;;;;5030381;28;20227;-75
2021/12/30 01:04:03;;;;;;;13.32;6.43;;;9.20;99.90;;;;;;5030600;28;20048;-75
2021/12/30 01:07:08;;;;;;;18.02;7.43;;;9.10;99.90;;;;;;5030150;28;20060;-75
2021/12/30 01:10:14;;;;;;;24.27;8.90;;;9.10;99.90;;;;;;5029640;28;20491;-75
2021/12/30 01:13:24;;;;;;;17.08;8.38;;;9.00;99.90;;;;;;5030149;28;20033;-75
2021/12/30 01:16:31;;;;;;;17.88;8.32;;;9.00;99.90;;;;;;5030142;28;20053;-75
2021/12/30 01:19:44;;;;;;;17.75;6.07;;;9.10;99.90;;;;;;5029721;28;20488;-75
2021/12/30 01:22:51;;;;;;;10.93;4.88;;;9.10;99.90;;;;;;5029007;28;20040;-75
2021/12/30 01:25:55;;;;;;;28.42;12.02;;;9.00;99.90;;;;;;5029896;28;20056;-75
2021/12/30 01:29:00;;;;;;;29.80;13.00;;;9.00;99.90;;;;;;5029245;28;20040;-75
2021/12/30 01:32:04;;;;;;;22.63;10.32;;;9.00;99.90;;;;;;5029751;28;20048;-75
2021/12/30 01:35:11;;;;;;;16.00;9.32;;;9.10;99.90;;;;;;5030024;28;20037;-75
2021/12/30 01:38:16;;;;;;;16.02;8.60;;;9.10;99.90;;;;;;5029627;28;20060;-75
2021/12/30 01:41:22;;;;;;;13.23;7.03;;;9.10;99.90;;;;;;5029824;28;20052;-75
2021/12/30 01:44:28;;;;;;;11.90;4.90;;;9.00;99.90;;;;;;5030156;28;20040;-75
2021/12/30 01:47:32;;;;;;;9.07;3.10;;;8.80;99.90;;;;;;5030035;28;20053;-75
2021/12/30 01:50:37;;;;;;;10.55;4.85;;;8.70;99.90;;;;;;5030011;28;20034;-75
2021/12/30 01:53:41;;;;;;;6.28;3.13;;;8.60;99.90;;;;;;5030359;28;20044;-75
2021/12/30 01:56:45;;;;;;;9.40;5.07;;;8.50;99.90;;;;;;5029987;28;20041;-75
2021/12/30 01:59:50;;;;;;;9.82;4.35;;;8.40;99.90;;;;;;5028833;28;20071;-75
2021/12/30 02:02:55;;;;;;;15.15;3.40;;;8.40;99.90;;;;;;5031510;28;20041;-75
2021/12/30 02:05:59;;;;;;;11.75;3.40;;;8.40;99.90;;;;;;5033803;28;20052;-75
2021/12/30 02:09:03;;;;;;;13.80;4.00;;;8.40;99.90;;;;;;5033418;28;20056;-75
2021/12/30 02:12:08;;;;;;;10.07;4.85;;;8.40;99.90;;;;;;5033726;28;20487;-75
2021/12/30 02:15:16;;;;;;;8.32;3.40;;;8.50;99.90;;;;;;5033440;28;20045;-75
2021/12/30 02:18:20;;;;;;;12.93;5.38;;;8.40;99.90;;;;;;5033364;28;20045;-75
2021/12/30 02:21:25;;;;;;;14.23;5.82;;;8.40;99.90;;;;;;5033187;28;20052;-75
2021/12/30 02:24:29;;;;;;;18.73;9.35;;;8.50;99.90;;;;;;5033396;28;20052;-75
2021/12/30 02:27:33;;;;;;;21.85;8.55;;;8.40;99.90;;;;;;5033169;28;20037;-75
2021/12/30 02:30:38;;;;;;;14.07;6.03;;;8.40;99.90;;;;;;5033209;28;20040;-75
2021/12/30 02:33:45;;;;;;;33.42;13.07;;;8.40;99.90;;;;;;5033048;28;20507;-75
2021/12/30 02:36:49;;;;;;;25.98;10.20;;;8.30;99.90;;;;;;5033140;28;20049;-75
2021/12/30 02:39:54;;;;;;;20.95;8.98;;;8.30;99.90;;;;;;5032617;28;20052;-75
2021/12/30 02:42:58;;;;;;;15.05;7.85;;;8.30;99.90;;;;;;5033081;28;20270;-75
2021/12/30 02:46:02;;;;;;;22.83;10.93;;;8.20;99.90;;;;;;5032853;28;20523;-75
2021/12/30 02:49:07;;;;;;;29.88;14.10;;;8.20;99.90;;;;;;5031925;28;20388;-75
2021/12/30 02:52:11;;;;;;;13.20;6.10;;;8.20;99.90;;;;;;5033165;28;20048;-74
2021/12/30 02:55:16;;;;;;;14.35;6.22;;;8.20;99.90;;;;;;5033043;28;20452;-75
2021/12/30 02:58:24;;;;;;;18.00;7.03;;;8.10;99.90;;;;;;5032406;28;20527;-75
2021/12/30 03:01:31;;;;;;;19.30;9.07;;;8.10;99.90;;;;;;5032943;28;20048;-75
2021/12/30 03:04:36;;;;;;;20.20;7.22;;;8.10;99.90;;;;;;5032832;28;20044;-75
2021/12/30 03:07:40;;;;;;;11.43;3.97;;;8.10;99.90;;;;;;5032513;28;20068;-75
2021/12/30 03:10:44;;;;;;;8.50;2.92;;;8.00;99.90;;;;;;5032872;28;20037;-75
2021/12/30 03:13:48;;;;;;;24.27;8.80;;;7.90;99.90;;;;;;5031870;28;20038;-75
2021/12/30 03:16:53;;;;;;;15.98;6.90;;;8.00;99.90;;;;;;5032635;28;20048;-75
2021/12/30 03:19:57;;;;;;;10.27;3.60;;;8.00;99.90;;;;;;5032139;28;20052;-75
2021/12/30 03:23:03;;;;;;;11.38;4.45;;;8.00;99.90;;;;;;5032287;28;20048;-75
2021/12/30 03:26:08;;;;;;;10.63;4.20;;;8.00;99.90;;;;;;5032506;28;20044;-74
2021/12/30 03:29:12;;;;;;;12.27;4.20;;;8.00;99.90;;;;;;5031868;28;20048;-74
2021/12/30 03:32:16;;;;;;;14.18;6.50;;;8.00;99.90;;;;;;5031908;28;20044;-74
2021/12/30 03:35:20;;;;;;;14.32;6.28;;;8.00;99.90;;;;;;5032331;28;20049;-74
2021/12/30 03:38:25;;;;;;;20.55;9.18;;;8.00;99.90;;;;;;5031372;28;20308;-75
2021/12/30 03:41:29;;;;;;;15.18;5.93;;;8.00;99.90;;;;;;5031930;28;20056;-74
2021/12/30 03:44:33;;;;;;;13.63;6.63;;;8.10;99.90;;;;;;5032219;28;20395;-74
2021/12/30 03:47:41;;;;;;;22.40;8.55;;;8.20;99.90;;;;;;5031718;28;20036;-75
2021/12/30 03:50:47;;;;;;;118.57;13.35;;;8.20;99.90;;;;;;5031900;28;20037;-75
2021/12/30 03:53:56;;;;;;;20.63;7.68;;;8.20;99.90;;;;;;5031965;28;20045;-75
2021/12/30 03:56:59;;;;;;;14.77;7.35;;;8.10;99.90;;;;;;5031817;28;20048;-74
2021/12/30 04:00:05;;;;;;;16.15;7.13;;;8.20;99.90;;;;;;5031305;28;20052;-74
2021/12/30 04:03:10;;;;;;;15.02;7.38;;;8.20;99.90;;;;;;5031698;28;20040;-74
2021/12/30 04:06:15;;;;;;;15.18;7.22;;;8.30;99.90;;;;;;5031340;28;20044;-75
2021/12/30 04:09:19;;;;;;;15.75;8.57;;;8.20;99.90;;;;;;5031178;28;20060;-74
2021/12/30 04:12:23;;;;;;;19.92;9.30;;;8.20;99.90;;;;;;5031302;28;20041;-74
2021/12/30 04:15:27;;;;;;;21.85;9.98;;;8.20;99.90;;;;;;5031443;28;20064;-74
2021/12/30 04:18:33;;;;;;;34.58;11.27;;;8.10;99.90;;;;;;5030862;28;20503;-74
2021/12/30 04:21:37;;;;;;;23.83;10.43;;;8.10;99.90;;;;;;5031357;28;20052;-75
2021/12/30 04:24:41;;;;;;;16.77;9.27;;;8.10;99.90;;;;;;5030868;28;20056;-75
2021/12/30 04:27:45;;;;;;;81.18;14.35;;;8.00;99.90;;;;;;5031087;28;20043;-75
2021/12/30 04:30:49;;;;;;;31.67;11.85;;;8.00;99.90;;;;;;5031247;28;20056;-74
2021/12/30 04:33:55;;;;;;;25.90;14.35;;;8.00;99.90;;;;;;5031142;28;20511;-75
2021/12/30 04:36:59;;;;;;;67.25;13.60;;;8.10;99.90;;;;;;5031078;28;20060;-75
2021/12/30 04:40:06;;;;;;;199.32;20.95;;;8.20;99.90;;;;;;5030640;28;20048;-74
2021/12/30 04:43:11;;;;;;;85.82;17.88;;;8.20;99.90;;;;;;5031258;28;20393;-74
2021/12/30 04:46:15;;;;;;;164.65;18.60;;;8.20;99.90;;;;;;5031436;28;20056;-75
2021/12/30 04:49:18;;;;;;;354.25;26.88;;;8.20;99.90;;;;;;5030260;28;20129;-75
2021/12/30 04:52:23;;;;;;;82.15;17.02;;;8.10;99.90;;;;;;5030936;28;20048;-75
2021/12/30 04:55:28;;;;;;;26.92;14.25;;;8.20;99.90;;;;;;5030775;28;20404;-74
2021/12/30 04:58:31;;;;;;;32.05;14.52;;;8.20;99.90;;;;;;5030216;28;20048;-74
2021/12/30 05:01:38;;;;;;;24.50;14.13;;;8.30;99.90;;;;;;5030673;28;20052;-74
2021/12/30 05:04:42;;;;;;;32.00;14.82;;;8.30;99.90;;;;;;5030589;28;20057;-74
2021/12/30 05:07:46;;;;;;;27.48;15.05;;;8.30;99.90;;;;;;5030375;28;20500;-75
2021/12/30 05:10:51;;;;;;;24.77;13.90;;;8.30;99.90;;;;;;5041270;28;20388;-74
2021/12/30 05:13:56;;;;;;;25.98;14.88;;;8.40;99.90;;;;;;5030495;28;20044;-75
2021/12/30 05:17:03;;;;;;;24.75;13.45;;;8.30;99.90;;;;;;5030248;28;20048;-74
2021/12/30 05:20:07;;;;;;;53.75;15.57;;;8.40;99.90;;;;;;5029922;28;20053;-74
2021/12/30 05:23:11;;;;;;;28.15;14.05;;;8.30;99.90;;;;;;5029830;28;20403;-75
2021/12/30 05:26:16;;;;;;;24.98;14.15;;;8.40;99.90;;;;;;5030447;28;20044;-74
2021/12/30 05:29:20;;;;;;;25.50;14.07;;;8.40;99.90;;;;;;5029816;28;20496;-74
2021/12/30 05:32:24;;;;;;;20.17;13.30;;;8.40;99.90;;;;;;5029535;28;20041;-74
2021/12/30 05:35:28;;;;;;;54.20;18.52;;;8.40;99.90;;;;;;5030541;28;20048;-75
2021/12/30 05:38:32;;;;;;;52.30;20.42;;;8.30;99.90;;;;;;5032531;28;20060;-74
2021/12/30 05:41:36;;;;;;;35.58;17.58;;;8.20;99.90;;;;;;5034715;28;20060;-74
2021/12/30 05:44:41;;;;;;;39.78;14.30;;;8.20;99.90;;;;;;5034330;28;20048;-74
2021/12/30 05:47:47;;;;;;;85.57;17.90;;;8.20;99.90;;;;;;5032850;28;20044;-74
2021/12/30 05:50:53;;;;;;;36.80;15.68;;;8.30;99.90;;;;;;5044664;28;20507;-74
2021/12/30 05:53:57;;;;;;;32.28;16.70;;;8.30;99.90;;;;;;5033817;28;20068;-74
2021/12/30 05:57:02;;;;;;;25.27;14.70;;;8.30;99.90;;;;;;5034303;28;20260;-74
2021/12/30 06:00:08;;;;;;;29.65;17.85;;;8.40;99.90;;;;;;5033546;28;20314;-74
2021/12/30 06:03:12;;;;;;;36.33;18.20;;;8.40;99.90;;;;;;5033911;28;20052;-74
2021/12/30 06:06:16;;;;;;;35.70;17.20;;;8.50;99.90;;;;;;5034191;28;20060;-74
2021/12/30 06:09:22;;;;;;;26.08;14.90;;;8.50;99.90;;;;;;5043946;28;20049;-74
2021/12/30 06:12:26;;;;;;;31.20;15.80;;;8.50;99.90;;;;;;5033537;28;20048;-74
2021/12/30 06:15:30;;;;;;;31.25;16.60;;;8.50;99.90;;;;;;5033990;28;20048;-74
2021/12/30 06:18:34;;;;;;;29.48;16.23;;;8.50;99.90;;;;;;5032967;28;20040;-74
2021/12/30 06:21:38;;;;;;;33.15;16.05;;;8.50;99.90;;;;;;5033291;28;20052;-74
2021/12/30 06:24:43;;;;;;;35.80;16.88;;;8.60;99.90;;;;;;5033188;28;20057;-74
2021/12/30 06:27:47;;;;;;;39.67;16.48;;;8.60;99.90;;;;;;5033289;28;20064;-74
2021/12/30 06:30:51;;;;;;;641.47;43.00;;;8.50;99.90;;;;;;5033275;28;20040;-74
2021/12/30 06:33:55;;;;;;;25.25;13.25;;;8.40;99.90;;;;;;5033371;28;20045;-75
2021/12/30 06:36:59;;;;;;;27.45;14.43;;;8.30;99.90;;;;;;5044080;28;20060;-75
2021/12/30 06:40:05;;;;;;;227.18;18.83;;;8.30;99.90;;;;;;5033032;28;20036;-75
2021/12/30 06:43:09;;;;;;;16.05;8.90;;;8.30;99.90;;;;;;5033375;28;20048;-74
2021/12/30 06:46:14;;;;;;;16.98;10.02;;;8.20;99.90;;;;;;5033160;28;20036;-74
2021/12/30 06:49:18;;;;;;;18.90;11.07;;;8.20;99.90;;;;;;5032120;28;20052;-75
2021/12/30 06:52:22;;;;;;;79.20;16.15;;;8.20;99.90;;;;;;5033060;28;20052;-74
2021/12/30 06:55:26;;;;;;;45.80;16.00;;;8.10;99.90;;;;;;5032397;28;20052;-74
2021/12/30 06:58:30;;;;;;;22.85;13.32;;;8.10;99.90;;;;;;5032542;28;20064;-75
2021/12/30 07:01:34;;;;;;;33.05;16.23;;;8.20;99.90;;;;;;5032505;28;20044;-75
2021/12/30 07:04:38;;;;;;;26.52;14.70;;;8.20;99.90;;;;;;5032006;28;20040;-75
2021/12/30 07:07:44;;;;;;;29.33;15.00;;;8.30;99.90;;;;;;5032577;28;20048;-75
2021/12/30 07:10:48;;;;;;;137.82;17.77;;;8.30;99.90;;;;;;5032260;28;20503;-75
2021/12/30 07:13:52;;;;;;;65.32;14.90;;;8.30;99.90;;;;;;5032436;28;20078;-74
2021/12/30 07:16:56;;;;;;;34.70;12.30;;;8.30;99.90;;;;;;5032221;28;20044;-75
2021/12/30 07:20:01;;;;;;;199.07;16.80;;;8.30;99.90;;;;;;5032091;28;20044;-75
2021/12/30 07:23:06;;;;;;;42.13;11.00;;;8.30;99.90;;;;;;5032119;28;20044;-75
2021/12/30 07:26:10;;;;;;;36.67;12.15;;;8.30;99.90;;;;;;5032210;28;20028;-74
2021/12/30 07:29:14;;;;;;;22.13;10.98;;;8.40;99.90;;;;;;5031706;28;20396;-75
2021/12/30 07:32:18;;;;;;;170.45;15.02;;;8.50;99.90;;;;;;5032291;28;20041;-75
2021/12/30 07:35:22;;;;;;;175.00;15.90;;;8.50;99.90;;;;;;5032064;28;20052;-75
2021/12/30 07:38:27;;;;;;;106.07;14.45;;;8.50;99.90;;;;;;5031052;28;20060;-75
2021/12/30 07:41:31;;;;;;;469.70;29.45;;;8.60;99.90;;;;;;5032307;28;20044;-75
2021/12/30 07:44:37;;;;;;;370.38;26.25;;;8.60;99.90;;;;;;5032200;28;20399;-75
2021/12/30 07:47:42;;;;;;;406.17;23.77;;;8.60;99.90;;;;;;5032145;28;20044;-75
2021/12/30 07:50:46;;;;;;;455.63;26.88;;;8.40;99.90;;;;;;5031866;28;20052;-74
2021/12/30 07:53:50;;;;;;;23.23;7.53;;;8.40;99.90;;;;;;5031817;28;20085;-75
2021/12/30 07:56:54;;;;;;;30.33;10.38;;;8.60;99.90;;;;;;5030630;28;20037;-74
2021/12/30 07:59:58;;;;;;;284.13;22.15;;;8.60;99.90;;;;;;5030960;28;20048;-75
2021/12/30 08:03:02;;;;;;;116.47;16.73;;;8.60;99.90;;;;;;5031508;28;20124;-75
2021/12/30 08:06:07;;;;;;;188.82;21.85;;;8.80;99.90;;;;;;5031286;28;20063;-75
2021/12/30 08:09:11;;;;;;;107.55;17.88;;;9.00;99.90;;;;;;5030928;28;20056;-74
2021/12/30 08:12:16;;;;;;;30.73;12.05;;;9.10;99.90;;;;;;5031396;28;20040;-75
2021/12/30 08:15:21;;;;;;;25.80;13.55;;;9.50;99.90;;;;;;5030707;28;20037;-75
2021/12/30 08:18:26;;;;;;;182.57;16.38;;;9.70;99.90;;;;;;5030919;28;20388;-75
2021/12/30 08:21:30;;;;;;;45.00;9.88;;;10.00;99.90;;;;;;5031133;28;20057;-75
2021/12/30 08:24:34;;;;;;;11.80;7.88;;;10.20;99.90;;;;;;5031626;28;20052;-75
2021/12/30 08:27:39;;;;;;;33.78;10.18;;;10.60;99.90;;;;;;5031042;28;20041;-75
2021/12/30 08:30:43;;;;;;;49.17;10.38;;;10.90;99.90;;;;;;5041497;28;20052;-75
2021/12/30 08:33:47;;;;;;;14.77;8.70;;;11.60;99.90;;;;;;5030888;28;20404;-75
2021/12/30 08:36:51;;;;;;;33.55;12.27;;;12.70;99.90;;;;;;5030782;28;20044;-75
2021/12/30 08:39:55;;;;;;;14.98;8.88;;;13.00;99.90;;;;;;5030652;28;20050;-75
2021/12/30 08:43:00;;;;;;;17.30;9.63;;;13.40;99.90;;;;;;5030996;28;20044;-75
2021/12/30 08:46:03;;;;;;;40.30;9.10;;;13.60;99.90;;;;;;5030997;28;20052;-75
2021/12/30 08:49:08;;;;;;;27.08;7.60;;;13.40;99.90;;;;;;5030302;28;20044;-75
2021/12/30 08:52:13;;;;;;;14.48;9.23;;;13.30;99.90;;;;;;5030587;28;20396;-75
2021/12/30 08:55:18;;;;;;;27.25;8.00;;;13.30;99.90;;;;;;5030464;28;20056;-75
2021/12/30 08:58:22;;;;;;;101.05;12.52;;;13.20;99.90;;;;;;5030385;28;20353;-75
2021/12/30 09:01:27;;;;;;;219.48;14.52;;;12.70;99.90;;;;;;5030268;28;20048;-75
2021/12/30 09:04:32;;;;;;;109.95;12.48;;;11.20;99.90;;;;;;5030682;28;20049;-75
2021/12/30 09:07:36;;;;;;;161.05;19.50;;;11.60;99.90;;;;;;5030279;28;20443;-75
2021/12/30 09:10:45;;;;;;;121.25;17.35;;;12.00;99.90;;;;;;5030365;28;20053;-75
2021/12/30 09:13:49;;;;;;;66.07;17.65;;;12.40;99.90;;;;;;5030268;28;20044;-75
2021/12/30 09:16:53;;;;;;;61.00;15.77;;;12.70;99.90;;;;;;5029339;28;20499;-75
2021/12/30 09:19:57;;;;;;;34.78;12.10;;;13.00;99.90;;;;;;5030148;28;20036;-75
2021/12/30 09:23:03;;;;;;;80.97;13.35;;;12.20;99.90;;;;;;5030298;28;20392;-75
2021/12/30 09:26:07;;;;;;;101.80;11.73;;;12.10;99.90;;;;;;5030499;28;20044;-75
2021/12/30 09:29:11;;;;;;;96.80;10.25;;;12.10;99.90;;;;;;5030450;28;20052;-74
2021/12/30 09:32:15;;;;;;;18.02;7.65;;;12.10;99.90;;;;;;5030521;28;20388;-75
2021/12/30 09:35:20;;;;;;;289.98;15.10;;;12.30;99.90;;;;;;5030435;28;20040;-74
2021/12/30 09:38:24;;;;;;;41.33;9.00;;;12.30;99.90;;;;;;5030151;28;20420;-75
2021/12/30 09:41:28;;;;;;;283.88;14.55;;;12.20;99.90;;;;;;5029436;28;20056;-74
2021/12/30 09:44:33;;;;;;;284.27;13.73;;;12.10;99.90;;;;;;5030556;28;20044;-74
2021/12/30 09:48:06;;;;;;;106.95;10.57;;;11.90;99.90;;;;;;5030319;28;20052;-74
2021/12/30 09:51:10;;;;;;;39.50;7.90;;;11.90;99.90;;;;;;5029016;28;20048;-75
2021/12/30 09:54:14;;;;;;;63.60;8.55;;;11.80;99.90;;;;;;5030034;28;20491;-75
2021/12/30 09:57:19;;;;;;;134.15;10.30;;;12.00;99.90;;;;;;5030091;28;20048;-75
2021/12/30 10:00:23;;;;;;;260.80;14.52;;;12.40;99.90;;;;;;5029167;28;20044;-75
2021/12/30 10:03:27;;;;;;;278.30;15.75;;;12.10;99.90;;;;;;5030120;28;20048;-75
2021/12/30 10:06:33;;;;;;;34.75;8.75;;;11.90;99.90;;;;;;5029886;28;20036;-75
2021/12/30 10:09:50;;;;;;;69.43;9.30;;;12.10;99.90;;;;;;5029294;28;20499;-75
2021/12/30 10:12:54;;;;;;;68.43;9.75;;;12.50;99.90;;;;;;5029847;28;20392;-75
2021/12/30 10:16:09;;;;;;;59.65;9.57;;;13.00;99.90;;;;;;5029945;28;20057;-75
2021/12/30 10:19:13;;;;;;;16.63;8.25;;;13.60;99.90;;;;;;5029768;28;20491;-75
2021/12/30 10:22:21;;;;;;;28.40;13.38;;;14.20;99.90;;;;;;5029674;28;20091;-75
2021/12/30 10:25:32;;;;;;;23.08;13.05;;;15.10;99.90;;;;;;5033423;28;20068;-75
2021/12/30 10:28:39;;;;;;;20.30;10.20;;;16.60;99.90;;;;;;5032982;28;20044;-75
2021/12/30 10:31:43;;;;;;;14.02;9.90;;;18.10;99.90;;;;;;5033427;28;20053;-75
2021/12/30 10:35:13;;;;;;;17.75;10.40;;;19.40;99.90;;;;;;5033411;28;20037;-75
2021/12/30 10:38:17;;;;;;;13.32;8.77;;;19.70;99.90;;;;;;5033040;28;20041;-75
2021/12/30 10:41:24;;;;;;;32.00;9.18;;;19.90;99.90;;;;;;5033176;28;20049;-75
2021/12/30 10:44:46;;;;;;;58.58;9.60;;;17.50;99.90;;;;;;5033299;28;20068;-75
2021/12/30 10:47:52;;;;;;;91.93;10.60;;;15.40;99.90;;;;;;5032940;28;20036;-75
2021/12/30 10:51:19;;;;;;;54.40;9.88;;;14.30;99.90;;;;;;5033163;28;20392;-75
2021/12/30 10:54:30;;;;;;;45.33;9.45;;;15.40;99.90;;;;;;5033216;28;20393;-74
2021/12/30 10:57:34;;;;;;;117.45;10.73;;;14.50;99.90;;;;;;5033397;28;20045;-75
2021/12/30 11:00:39;;;;;;;23.98;9.27;;;14.40;99.90;;;;;;5032905;28;20048;-74
2021/12/30 11:03:58;;;;;;;127.18;11.55;;;14.10;99.90;;;;;;5033692;28;20056;-74
2021/12/30 11:07:03;;;;;;;371.38;18.60;;;14.40;99.90;;;;;;5033122;28;20065;-75
2021/12/30 11:10:07;;;;;;;11.93;7.93;;;13.50;99.90;;;;;;5033029;28;20053;-75
2021/12/30 11:13:14;;;;;;;154.35;12.57;;;14.00;99.90;;;;;;5032968;28;20044;-74
2021/12/30 11:16:18;;;;;;;21.30;9.02;;;14.60;99.90;;;;;;5032864;28;20036;-75
2021/12/30 11:19:23;;;;;;;23.45;8.85;;;15.30;99.90;;;;;;5032482;28;20404;-75
2021/12/30 11:22:32;;;;;;;16.00;9.27;;;15.90;99.90;;;;;;5032423;28;20059;-75
2021/12/30 11:25:36;;;;;;;18.83;10.32;;;16.80;99.90;;;;;;5032567;28;20056;-75
2021/12/30 11:28:40;;;;;;;11.40;8.52;;;17.50;99.90;;;;;;5032089;28;20076;-75
2021/12/30 11:31:45;;;;;;;15.15;9.32;;;18.30;99.90;;;;;;5032267;28;20052;-75
2021/12/30 11:34:50;;;;;;;11.93;8.98;;;19.80;99.90;;;;;;5031638;28;20051;-76
2021/12/30 11:37:55;;;;;;;11.48;9.52;;;20.80;99.90;;;;;;5032012;28;20052;-75
2021/12/30 11:40:59;;;;;;;13.32;9.63;;;20.40;99.90;;;;;;5032214;28;20049;-75
2021/12/30 11:44:04;;;;;;;17.38;12.98;;;20.40;99.90;;;;;;5032127;28;20396;-75
2021/12/30 11:47:28;;;;;;;19.23;15.00;;;19.90;99.90;;;;;;5029807;28;20515;-75
2021/12/30 11:50:38;;;;;;;33.22;18.83;;;20.50;99.90;;;;;;5031436;28;20057;-75
2021/12/30 11:53:42;;;;;;;19.60;13.25;;;21.10;99.90;;;;;;5031825;28;20060;-76
2021/12/30 11:56:46;;;;;;;12.32;8.95;;;21.80;99.90;;;;;;5030582;28;20041;-76
2021/12/30 11:59:51;;;;;;;12.60;10.77;;;21.70;99.90;;;;;;5030776;28;20112;-75
2021/12/30 12:03:02;;;;;;;12.00;8.40;;;19.10;99.90;;;;;;5031427;28;20048;-75
2021/12/30 12:06:25;;;;;;;10.45;8.57;;;19.40;99.90;;;;;;5031459;28;20053;-75
2021/12/30 12:09:31;;;;;;;10.55;8.10;;;20.60;99.90;;;;;;5030687;28;20040;-76
2021/12/30 12:12:36;;;;;;;9.80;7.43;;;21.70;99.90;;;;;;5031449;28;20424;-75
2021/12/30 12:15:44;;;;;;;11.45;8.68;;;22.30;99.90;;;;;;5031475;28;20048;-75
2021/12/30 12:19:06;;;;;;;9.85;7.90;;;22.90;99.90;;;;;;5030672;28;20427;-76
2021/12/30 12:22:19;;;;;;;9.70;6.13;;;24.20;99.90;;;;;;5031380;28;20044;-75
2021/12/30 12:25:28;;;;;;;8.57;6.25;;;25.10;99.90;;;;;;5031154;28;20075;-76
2021/12/30 12:28:34;;;;;;;7.60;5.88;;;24.80;99.90;;;;;;5030225;28;20052;-76
2021/12/30 12:31:55;;;;;;;7.97;6.40;;;24.70;99.90;;;;;;5030859;28;20040;-76
2021/12/30 12:35:02;;;;;;;8.52;7.10;;;22.30;99.90;;;;;;5030543;28;20045;-76
2021/12/30 12:38:09;;;;;;;10.55;7.18;;;21.10;99.90;;;;;;5030374;28;20306;-76
2021/12/30 12:41:36;;;;;;;9.90;7.22;;;21.40;99.90;;;;;;5031200;28;20053;-76
2021/12/30 12:44:40;;;;;;;8.95;6.68;;;21.10;99.90;;;;;;5031053;28;20048;-76
2021/12/30 12:47:45;;;;;;;9.43;6.85;;;21.40;99.90;;;;;;5030709;28;20527;-76
2021/12/30 12:51:07;;;;;;;9.98;7.25;;;22.30;99.90;;;;;;5030401;28;20044;-76
2021/12/30 12:54:10;;;;;;;7.78;6.22;;;24.00;99.90;;;;;;5030498;28;20056;-74
2021/12/30 12:57:18;;;;;;;16.60;12.43;;;25.70;99.70;;;;;;5029633;28;20503;-76
2021/12/30 13:00:22;;;;;;;15.57;12.63;;;26.70;98.20;;;;;;5030102;28;20037;-76
2021/12/30 13:03:27;;;;;;;12.10;9.65;;;27.70;97.70;;;;;;5030471;28;20392;-75
2021/12/30 13:06:40;;;;;;;9.95;8.82;;;27.50;97.20;;;;;;5030544;28;20091;-76
2021/12/30 13:09:46;;;;;;;10.35;7.32;;;24.20;98.20;;;;;;5029378;28;20499;-76
2021/12/30 13:12:50;;;;;;;9.73;7.75;;;22.10;99.90;;;;;;5030300;28;20048;-76
2021/12/30 13:15:56;;;;;;;11.75;8.55;;;20.40;99.90;;;;;;5030404;28;20048;-75
2021/12/30 13:19:01;;;;;;;14.35;9.68;;;19.70;99.90;;;;;;5029648;28;20036;-75
2021/12/30 13:22:23;;;;;;;11.95;8.35;;;19.40;99.90;;;;;;5030429;28;20057;-76
2021/12/30 13:25:27;;;;;;;16.15;11.20;;;19.80;99.90;;;;;;5030219;28;20060;-76
2021/12/30 13:28:43;;;;;;;16.70;11.48;;;18.10;99.90;;;;;;5029712;28;20048;-76
2021/12/30 13:32:00;;;;;;;18.40;13.25;;;18.10;99.90;;;;;;5030108;28;20395;-75
2021/12/30 13:35:14;;;;;;;17.13;12.60;;;17.40;99.90;;;;;;5030000;28;20052;-76
2021/12/30 13:38:18;;;;;;;23.65;14.23;;;18.80;99.90;;;;;;5029635;28;20310;-75
2021/12/30 13:41:22;;;;;;;19.33;12.73;;;20.10;99.90;;;;;;5029783;28;20052;-76
2021/12/30 13:44:44;;;;;;;20.42;14.07;;;21.40;99.90;;;;;;5030084;28;20491;-76
2021/12/30 13:47:49;;;;;;;16.75;11.63;;;22.50;99.90;;;;;;5029864;28;20057;-76
2021/12/30 13:51:10;;;;;;;18.45;14.10;;;23.60;99.90;;;;;;5030256;28;20072;-76
2021/12/30 13:54:14;;;;;;;17.60;12.68;;;24.80;99.90;;;;;;5030237;28;20053;-76
2021/12/30 13:57:26;;;;;;;14.98;11.70;;;25.30;99.90;;;;;;5030240;28;20389;-76
2021/12/30 14:00:35;;;;;;;15.20;12.38;;;25.70;99.80;;;;;;5034152;28;20048;-76
2021/12/30 14:03:48;;;;;;;13.60;10.55;;;25.10;99.00;;;;;;5034164;28;20044;-76
2021/12/30 14:06:58;;;;;;;14.60;10.27;;;24.20;99.90;;;;;;5033830;28;20044;-76
2021/12/30 14:10:03;;;;;;;13.30;8.85;;;24.10;99.90;;;;;;5032952;28;20229;-76
2021/12/30 14:13:07;;;;;;;11.90;8.15;;;24.00;99.90;;;;;;5033526;28;20499;-74
2021/12/30 14:16:21;;;;;;;11.35;8.27;;;23.90;99.90;;;;;;5033830;28;20044;-73
2021/12/30 14:19:34;;;;;;;11.57;8.88;;;23.90;99.90;;;;;;5033601;28;20495;-74
2021/12/30 14:22:44;;;;;;;13.27;9.20;;;23.70;99.90;;;;;;5033717;28;20041;-76
2021/12/30 14:25:48;;;;;;;16.63;8.93;;;23.10;99.90;;;;;;5034173;28;20060;-76
2021/12/30 14:29:04;;;;;;;11.48;7.90;;;22.70;99.90;;;;;;5033109;28;20049;-76
2021/12/30 14:32:12;;;;;;;19.05;9.20;;;22.30;99.90;;;;;;5033362;28;20116;-76
2021/12/30 14:35:16;;;;;;;14.73;10.45;;;22.00;99.90;;;;;;5033580;28;20044;-76
2021/12/30 14:38:30;;;;;;;18.02;11.30;;;21.40;99.90;;;;;;5032907;28;20056;-75
2021/12/30 14:41:34;;;;;;;21.15;11.73;;;20.00;99.90;;;;;;5033326;28;20120;-76
2021/12/30 14:44:41;;;;;;;21.00;12.90;;;19.10;99.90;;;;;;5033081;28;20215;-76
2021/12/30 14:47:58;;;;;;;19.52;13.93;;;18.60;99.90;;;;;;5032789;28;20127;-75
2021/12/30 14:51:17;;;;;;;18.85;12.27;;;18.20;99.90;;;;;;5032648;28;20052;-76
2021/12/30 14:54:22;;;;;;;19.33;13.05;;;17.70;99.90;;;;;;5032859;28;20492;-76
2021/12/30 14:57:27;;;;;;;20.83;13.95;;;17.30;99.90;;;;;;5032799;28;20125;-76
2021/12/30 15:00:34;;;;;;;16.98;12.57;;;17.00;99.90;;;;;;5032595;28;20048;-76
2021/12/30 15:03:38;;;;;;;19.40;12.10;;;16.70;99.90;;;;;;5032845;28;20056;-75
2021/12/30 15:06:42;;;;;;;18.92;13.55;;;16.30;99.90;;;;;;5032711;28;20044;-75
2021/12/30 15:09:51;;;;;;;24.13;14.70;;;15.80;99.90;;;;;;5031745;28;20056;-75
2021/12/30 15:12:55;;;;;;;22.05;14.35;;;15.30;99.90;;;;;;5032443;28;20036;-76
2021/12/30 15:16:01;;;;;;;23.38;16.60;;;14.80;99.90;;;;;;5043053;28;20053;-75
2021/12/30 15:19:05;;;;;;;36.95;20.48;;;14.30;99.90;;;;;;5032074;28;20480;-75
2021/12/30 15:22:10;;;;;;;29.08;18.30;;;13.70;99.90;;;;;;5042499;28;20397;-75
2021/12/30 15:25:15;;;;;;;36.90;18.20;;;13.30;99.90;;;;;;5032338;28;20052;-75
2021/12/30 15:28:19;;;;;;;30.08;19.98;;;13.20;99.90;;;;;;5031674;28;20056;-75
2021/12/30 15:31:25;;;;;;;33.80;20.05;;;13.00;99.90;;;;;;5032125;28;20049;-74
2021/12/30 15:34:30;;;;;;;30.55;19.10;;;12.90;99.90;;;;;;5032328;28;20056;-75
2021/12/30 15:37:34;;;;;;;26.80;17.17;;;12.70;99.90;;;;;;5043120;28;20152;-75
2021/12/30 15:40:39;;;;;;;26.70;17.38;;;12.40;99.90;;;;;;5032251;28;20052;-75
2021/12/30 15:43:45;;;;;;;28.90;19.10;;;12.20;99.90;;;;;;5032194;28;20499;-75
2021/12/30 15:46:49;;;;;;;28.42;16.75;;;12.00;99.90;;;;;;5032160;28;20044;-75
2021/12/30 15:49:53;;;;;;;27.67;16.50;;;11.70;99.90;;;;;;5031273;28;20052;-75
2021/12/30 15:53:01;;;;;;;27.83;16.67;;;11.60;99.90;;;;;;5031968;28;20400;-74
2021/12/30 15:56:05;;;;;;;25.88;15.40;;;11.50;99.90;;;;;;5031542;28;20045;-74